Time;durP1;ratioP1;P1;durP2;ratioP2;P2;SDS_P1;SDS_P2;PMS_P1;PMS_P2;Temp;Humidity;BMP_temperature;BMP_pressure;BME280_temperature;BME280_humidity;BME280_pressure;Samples;Min_cycle;Max_cycle;Signal;HPM_P1;HPM_P2
2023/02/02 00:02:07;;;;;;;3.83;1.15;;;;;;;;;;5026186;28;21030;-65
2023/02/02 00:04:36;;;;;;;0.70;0.40;;;;;;;;;;5033484;28;20492;-66
2023/02/02 00:07:04;;;;;;;1.60;0.70;;;;;;;;;;5020417;28;20044;-67
2023/02/02 00:09:31;;;;;;;3.08;0.90;;;;;;;;;;5027811;28;20075;-67
2023/02/02 00:11:59;;;;;;;1.48;0.80;;;;;;;;;;5026710;28;20065;-65
2023/02/02 00:14:26;;;;;;;3.47;1.33;;;;;;;;;;5026328;28;20482;-64
2023/02/02 00:16:56;;;;;;;2.85;0.85;;;;;;;;;;5031474;28;20061;-65
2023/02/02 00:19:25;;;;;;;1.88;0.75;;;;;;;;;;5028715;28;20068;-67
2023/02/02 00:21:52;;;;;;;4.20;1.20;;;;;;;;;;5007917;28;20164;-65
2023/02/02 00:24:19;;;;;;;2.20;0.82;;;;;;;;;;5022544;28;20065;-66
2023/02/02 00:26:51;;;;;;;2.50;0.95;;;;;;;;;;5023404;28;20053;-65
2023/02/02 00:29:21;;;;;;;0.80;0.38;;;;;;;;;;5008883;28;20042;-65
2023/02/02 00:31:49;;;;;;;3.42;1.15;;;;;;;;;;5029157;28;20041;-65
2023/02/02 00:34:16;;;;;;;1.92;0.90;;;;;;;;;;5025135;28;20126;-64
2023/02/02 00:36:43;;;;;;;1.13;0.50;;;;;;;;;;5018451;28;20041;-65
2023/02/02 00:39:10;;;;;;;1.27;0.70;;;;;;;;;;5021981;28;20394;-64
2023/02/02 00:41:37;;;;;;;2.50;0.82;;;;;;;;;;5007899;28;20025;-66
2023/02/02 00:46:48;;;;;;;1.52;0.85;;;;;;;;;;5026529;28;20048;-63
2023/02/02 00:49:15;;;;;;;4.47;1.20;;;;;;;;;;5031987;28;20037;-65
2023/02/02 00:51:42;;;;;;;0.20;0.20;;;;;;;;;;5034536;28;20045;-64
2023/02/02 00:54:08;;;;;;;1.13;0.47;;;;;;;;;;5036492;28;20570;-64
2023/02/02 00:56:35;;;;;;;0.82;0.63;;;;;;;;;;5044655;28;20033;-64
2023/02/02 00:59:02;;;;;;;1.58;0.68;;;;;;;;;;5048873;28;20087;-64
2023/02/02 01:01:28;;;;;;;1.08;0.55;;;;;;;;;;5049999;28;20045;-65
2023/02/02 01:03:55;;;;;;;0.88;0.55;;;;;;;;;;5038163;28;20490;-65
2023/02/02 01:06:22;;;;;;;0.20;0.20;;;;;;;;;;5025060;28;20406;-65
2023/02/02 01:08:48;;;;;;;0.95;0.50;;;;;;;;;;5025318;28;20542;-65
2023/02/02 01:11:15;;;;;;;2.08;0.73;;;;;;;;;;5028937;28;20048;-63
2023/02/02 01:13:42;;;;;;;2.20;0.93;;;;;;;;;;5027530;28;20041;-63
2023/02/02 01:16:09;;;;;;;3.95;0.80;;;;;;;;;;5028860;28;20037;-63
2023/02/02 01:18:36;;;;;;;2.80;0.95;;;;;;;;;;4985064;28;20046;-66
2023/02/02 01:21:04;;;;;;;2.92;0.98;;;;;;;;;;4983860;28;20046;-66
2023/02/02 01:23:31;;;;;;;3.10;1.13;;;;;;;;;;4986097;28;20526;-65
2023/02/02 01:25:59;;;;;;;4.85;1.55;;;;;;;;;;4983340;28;20038;-63
2023/02/02 01:28:27;;;;;;;3.53;1.38;;;;;;;;;;4979857;28;20471;-65
2023/02/02 01:30:54;;;;;;;2.72;1.00;;;;;;;;;;4985081;28;20034;-64
2023/02/02 01:33:20;;;;;;;2.28;0.90;;;;;;;;;;4992782;28;20062;-65
2023/02/02 01:35:51;;;;;;;2.72;1.17;;;;;;;;;;4992542;28;20807;-65
2023/02/02 01:38:18;;;;;;;6.00;2.08;;;;;;;;;;4987878;28;20050;-65
2023/02/02 01:40:46;;;;;;;4.28;1.60;;;;;;;;;;4988902;28;20054;-65
2023/02/02 01:43:21;;;;;;;3.72;1.42;;;;;;;;;;4969823;28;20514;-65
2023/02/02 01:45:48;;;;;;;2.22;1.00;;;;;;;;;;4983624;28;20070;-66
2023/02/02 01:48:15;;;;;;;1.42;0.63;;;;;;;;;;4968423;28;20042;-66
2023/02/02 01:50:41;;;;;;;3.80;1.02;;;;;;;;;;4950889;28;20165;-64
2023/02/02 01:53:08;;;;;;;4.88;1.38;;;;;;;;;;4980195;28;20125;-66
2023/02/02 01:55:37;;;;;;;3.33;1.20;;;;;;;;;;4989685;28;20652;-66
2023/02/02 01:58:06;;;;;;;3.10;1.30;;;;;;;;;;5022421;28;20041;-65
2023/02/02 02:00:33;;;;;;;2.00;0.77;;;;;;;;;;5020058;28;20455;-65
2023/02/02 02:03:02;;;;;;;0.52;0.30;;;;;;;;;;5022274;28;20112;-67
2023/02/02 02:05:31;;;;;;;3.55;1.08;;;;;;;;;;5025152;28;20044;-65
2023/02/02 02:08:02;;;;;;;2.20;0.93;;;;;;;;;;5017646;28;20052;-66
2023/02/02 02:10:29;;;;;;;2.60;0.95;;;;;;;;;;5007044;28;20041;-65
2023/02/02 02:12:56;;;;;;;5.82;1.00;;;;;;;;;;5003456;28;20502;-66
2023/02/02 02:18:08;;;;;;;3.22;1.00;;;;;;;;;;5001369;28;20091;-68
2023/02/02 02:26:33;;;;;;;3.15;1.25;;;;;;;;;;4959119;28;20596;-66
2023/02/02 02:29:00;;;;;;;2.53;0.93;;;;;;;;;;4958087;28;20363;-66
2023/02/02 02:31:42;;;;;;;4.30;1.70;;;;;;;;;;4957399;28;20112;-66
2023/02/02 02:34:19;;;;;;;6.10;1.27;;;;;;;;;;4958184;28;20606;-65
2023/02/02 02:36:48;;;;;;;3.17;1.20;;;;;;;;;;4957618;28;20098;-65
2023/02/02 02:39:37;;;;;;;3.63;1.40;;;;;;;;;;4953083;28;20093;-65
2023/02/02 02:42:13;;;;;;;2.88;1.48;;;;;;;;;;4958415;28;20048;-65
2023/02/02 02:44:40;;;;;;;3.58;1.67;;;;;;;;;;4958806;28;20038;-66
2023/02/02 02:47:07;;;;;;;6.40;1.73;;;;;;;;;;4958732;28;20547;-68
2023/02/02 02:49:41;;;;;;;2.13;0.90;;;;;;;;;;4956954;28;20067;-65
2023/02/02 02:52:08;;;;;;;2.58;1.30;;;;;;;;;;4982480;28;20095;-66
2023/02/02 02:54:37;;;;;;;2.78;1.23;;;;;;;;;;5000094;28;20053;-67
2023/02/02 02:57:43;;;;;;;3.45;1.35;;;;;;;;;;4989356;28;20049;-66
2023/02/02 03:00:24;;;;;;;2.45;1.20;;;;;;;;;;4993474;28;20069;-66
2023/02/02 03:02:53;;;;;;;2.75;1.10;;;;;;;;;;4974674;28;20045;-66
2023/02/02 03:05:37;;;;;;;4.95;2.30;;;;;;;;;;4979586;28;20053;-67
2023/02/02 03:08:30;;;;;;;1.75;0.90;;;;;;;;;;4960884;28;20134;-66
2023/02/02 03:10:58;;;;;;;5.50;1.13;;;;;;;;;;4967007;28;20048;-66
2023/02/02 03:13:26;;;;;;;3.15;1.05;;;;;;;;;;4962162;28;20049;-65
2023/02/02 03:15:54;;;;;;;2.95;1.27;;;;;;;;;;4962465;28;20041;-67
2023/02/02 03:18:23;;;;;;;1.23;0.68;;;;;;;;;;4951920;28;20137;-66
2023/02/02 03:20:49;;;;;;;4.13;1.08;;;;;;;;;;4949193;28;20353;-66
2023/02/02 03:23:16;;;;;;;1.83;0.93;;;;;;;;;;4967518;28;20109;-67
2023/02/02 03:25:43;;;;;;;2.17;1.05;;;;;;;;;;4969349;28;20879;-67
2023/02/02 03:28:30;;;;;;;2.08;0.88;;;;;;;;;;4947910;28;20047;-67
2023/02/02 03:30:58;;;;;;;5.30;1.02;;;;;;;;;;4952979;28;20046;-66
2023/02/02 03:33:25;;;;;;;2.10;0.63;;;;;;;;;;4955015;28;20121;-67
2023/02/02 03:35:51;;;;;;;4.22;1.30;;;;;;;;;;4954076;28;20035;-65
2023/02/02 03:38:18;;;;;;;3.13;1.63;;;;;;;;;;4962947;28;20209;-65
2023/02/02 03:40:45;;;;;;;4.13;1.67;;;;;;;;;;4986301;28;20030;-66
2023/02/02 03:43:12;;;;;;;1.70;0.95;;;;;;;;;;4995943;28;20041;-65
2023/02/02 03:45:41;;;;;;;5.07;1.30;;;;;;;;;;4990357;28;20461;-66
2023/02/02 03:48:08;;;;;;;2.65;0.95;;;;;;;;;;4994419;28;20034;-66
2023/02/02 03:50:34;;;;;;;3.08;1.10;;;;;;;;;;4992509;28;20044;-64
2023/02/02 03:53:01;;;;;;;2.67;1.27;;;;;;;;;;4994312;28;20085;-63
2023/02/02 03:55:28;;;;;;;1.70;0.73;;;;;;;;;;4993281;28;20176;-64
2023/02/02 03:57:54;;;;;;;3.35;1.23;;;;;;;;;;4993957;28;20155;-65
2023/02/02 04:00:21;;;;;;;3.88;1.30;;;;;;;;;;4991959;28;20268;-65
2023/02/02 04:02:48;;;;;;;2.38;1.23;;;;;;;;;;4991906;28;20076;-65
2023/02/02 04:05:17;;;;;;;2.25;1.10;;;;;;;;;;4991402;28;20211;-65
2023/02/02 04:08:04;;;;;;;3.83;1.50;;;;;;;;;;4990447;28;20054;-64
2023/02/02 04:10:30;;;;;;;1.55;0.82;;;;;;;;;;4962204;28;20118;-68
2023/02/02 04:12:59;;;;;;;2.47;0.98;;;;;;;;;;4978966;28;20052;-63
2023/02/02 04:15:26;;;;;;;1.85;1.02;;;;;;;;;;4978171;28;20081;-65
2023/02/02 04:17:52;;;;;;;5.10;1.67;;;;;;;;;;4978319;28;20042;-65
2023/02/02 04:20:19;;;;;;;10.02;1.60;;;;;;;;;;4978171;28;20057;-64
2023/02/02 04:22:46;;;;;;;3.15;1.23;;;;;;;;;;4979857;28;20101;-63
2023/02/02 04:25:12;;;;;;;4.75;1.80;;;;;;;;;;4981976;28;20558;-64
2023/02/02 04:27:39;;;;;;;3.70;1.50;;;;;;;;;;4981214;28;20133;-63
2023/02/02 04:30:06;;;;;;;3.17;1.40;;;;;;;;;;4983882;28;20154;-65
2023/02/02 04:32:33;;;;;;;2.80;1.35;;;;;;;;;;4980222;28;20046;-63
2023/02/02 04:34:59;;;;;;;5.78;1.73;;;;;;;;;;4980236;28;20173;-66
2023/02/02 04:37:26;;;;;;;2.65;1.40;;;;;;;;;;4979261;28;20042;-65
2023/02/02 04:39:54;;;;;;;3.15;1.33;;;;;;;;;;4979260;28;20148;-65
2023/02/02 04:42:20;;;;;;;1.80;0.80;;;;;;;;;;4980108;28;20423;-64
2023/02/02 04:44:47;;;;;;;6.10;1.48;;;;;;;;;;4990044;28;20065;-67
2023/02/02 04:47:14;;;;;;;4.32;1.83;;;;;;;;;;4988819;28;20038;-67
2023/02/02 04:49:40;;;;;;;4.53;1.73;;;;;;;;;;4998209;28;20047;-65
2023/02/02 04:52:07;;;;;;;2.88;1.35;;;;;;;;;;5006683;28;20089;-66
2023/02/02 04:54:33;;;;;;;5.03;2.38;;;;;;;;;;5007510;28;20049;-64
2023/02/02 04:57:00;;;;;;;3.97;1.83;;;;;;;;;;5009123;28;20042;-66
2023/02/02 04:59:28;;;;;;;5.68;1.98;;;;;;;;;;5023933;28;20101;-66
2023/02/02 05:01:59;;;;;;;4.88;1.35;;;;;;;;;;5003536;28;20278;-65
2023/02/02 05:04:26;;;;;;;3.75;1.48;;;;;;;;;;4987228;28;20049;-65
2023/02/02 05:06:53;;;;;;;2.20;0.95;;;;;;;;;;4985913;28;20042;-66
2023/02/02 05:09:20;;;;;;;4.22;1.85;;;;;;;;;;4976935;28;20058;-66
2023/02/02 05:11:46;;;;;;;2.92;1.17;;;;;;;;;;4984986;28;20514;-67
2023/02/02 05:14:17;;;;;;;5.07;1.95;;;;;;;;;;4987067;28;20070;-66
2023/02/02 05:16:44;;;;;;;3.08;1.08;;;;;;;;;;4983340;28;20042;-65
2023/02/02 05:19:11;;;;;;;2.85;1.23;;;;;;;;;;4984571;28;20060;-65
2023/02/02 05:21:38;;;;;;;6.25;1.95;;;;;;;;;;4986846;28;20035;-66
2023/02/02 05:24:04;;;;;;;4.95;1.98;;;;;;;;;;5006135;28;20069;-66
2023/02/02 05:26:31;;;;;;;3.63;1.48;;;;;;;;;;5006533;28;20063;-66
2023/02/02 05:28:58;;;;;;;3.28;1.52;;;;;;;;;;5016230;28;20052;-66
2023/02/02 05:31:24;;;;;;;5.13;1.63;;;;;;;;;;5002889;28;20521;-65
2023/02/02 05:33:51;;;;;;;3.50;1.63;;;;;;;;;;5003762;28;20060;-66
2023/02/02 05:36:18;;;;;;;3.65;1.75;;;;;;;;;;4983830;28;20030;-65
2023/02/02 05:38:44;;;;;;;2.08;1.17;;;;;;;;;;5003721;28;20049;-67
2023/02/02 05:41:11;;;;;;;3.95;1.63;;;;;;;;;;5002608;28;20068;-66
2023/02/02 05:43:38;;;;;;;3.55;1.63;;;;;;;;;;5002013;28;20378;-65
2023/02/02 05:46:04;;;;;;;4.05;2.22;;;;;;;;;;5005539;28;20056;-65
2023/02/02 05:48:31;;;;;;;4.78;2.30;;;;;;;;;;4996390;28;20053;-66
2023/02/02 05:50:58;;;;;;;3.88;2.05;;;;;;;;;;5002351;28;20034;-66
2023/02/02 05:53:25;;;;;;;4.13;2.38;;;;;;;;;;5003202;28;20502;-66
2023/02/02 05:55:52;;;;;;;7.85;3.50;;;;;;;;;;5003303;28;20033;-67
2023/02/02 05:58:18;;;;;;;5.80;2.45;;;;;;;;;;5002958;28;20903;-66
2023/02/02 06:00:45;;;;;;;8.40;2.60;;;;;;;;;;4990855;28;20076;-64
2023/02/02 06:03:12;;;;;;;6.45;2.50;;;;;;;;;;5017792;28;20088;-64
2023/02/02 06:05:38;;;;;;;7.40;2.95;;;;;;;;;;5012444;28;20033;-66
2023/02/02 06:08:05;;;;;;;4.00;1.90;;;;;;;;;;5009452;28;20044;-64
2023/02/02 06:10:32;;;;;;;4.65;2.35;;;;;;;;;;5014942;28;20033;-65
2023/02/02 06:12:58;;;;;;;6.95;2.78;;;;;;;;;;5016862;28;20034;-65
2023/02/02 06:15:26;;;;;;;5.88;2.15;;;;;;;;;;5013838;28;20030;-65
2023/02/02 06:17:53;;;;;;;6.82;3.05;;;;;;;;;;5021281;28;20112;-66
2023/02/02 06:20:19;;;;;;;6.63;3.28;;;;;;;;;;5018508;28;20489;-65
2023/02/02 06:22:47;;;;;;;3.70;2.05;;;;;;;;;;5012011;28;20046;-65
2023/02/02 06:25:14;;;;;;;5.97;2.83;;;;;;;;;;5002251;28;20073;-64
2023/02/02 06:27:40;;;;;;;3.95;1.75;;;;;;;;;;5001037;28;20057;-64
2023/02/02 06:30:07;;;;;;;3.92;2.00;;;;;;;;;;5000926;28;20083;-65
2023/02/02 06:32:34;;;;;;;2.35;1.27;;;;;;;;;;5001325;28;20042;-65
2023/02/02 06:35:01;;;;;;;4.55;2.10;;;;;;;;;;5003941;28;20041;-65
2023/02/02 06:37:27;;;;;;;3.50;1.85;;;;;;;;;;4984800;28;20040;-64
2023/02/02 06:39:54;;;;;;;4.15;1.27;;;;;;;;;;5001858;28;21258;-62
2023/02/02 06:42:20;;;;;;;4.43;1.48;;;;;;;;;;5000781;28;20034;-63
2023/02/02 06:44:47;;;;;;;1.23;0.68;;;;;;;;;;5002015;28;20044;-64
2023/02/02 06:47:14;;;;;;;3.63;1.63;;;;;;;;;;5001917;28;20046;-63
2023/02/02 06:49:40;;;;;;;3.55;1.70;;;;;;;;;;5001299;28;20050;-62
2023/02/02 06:52:07;;;;;;;2.60;1.35;;;;;;;;;;5000005;28;20054;-62
2023/02/02 06:54:34;;;;;;;3.63;1.33;;;;;;;;;;4995320;28;20049;-64
2023/02/02 06:57:01;;;;;;;3.65;2.00;;;;;;;;;;5002614;28;20043;-66
2023/02/02 06:59:27;;;;;;;7.97;1.45;;;;;;;;;;4962778;28;20267;-63
2023/02/02 07:01:54;;;;;;;3.47;1.77;;;;;;;;;;5001870;28;20041;-64
2023/02/02 07:04:22;;;;;;;2.53;0.82;;;;;;;;;;5002246;28;20034;-65
2023/02/02 07:06:49;;;;;;;2.55;1.00;;;;;;;;;;4999323;28;20050;-64
2023/02/02 07:09:15;;;;;;;0.80;0.60;;;;;;;;;;5001968;28;20042;-63
2023/02/02 07:11:42;;;;;;;4.07;1.50;;;;;;;;;;5002006;28;20045;-63
2023/02/02 07:14:10;;;;;;;3.25;1.38;;;;;;;;;;5007172;28;20454;-65
2023/02/02 07:16:36;;;;;;;1.08;0.82;;;;;;;;;;5001167;28;20042;-64
2023/02/02 07:19:03;;;;;;;2.40;1.10;;;;;;;;;;5006381;28;20097;-65
2023/02/02 07:21:34;;;;;;;2.15;0.88;;;;;;;;;;5004573;28;20116;-65
2023/02/02 07:24:04;;;;;;;1.33;0.80;;;;;;;;;;5006036;28;20685;-66
2023/02/02 07:26:31;;;;;;;5.47;1.13;;;;;;;;;;5003676;28;20128;-64
2023/02/02 07:28:57;;;;;;;2.28;1.13;;;;;;;;;;4997254;28;20125;-64
2023/02/02 07:31:25;;;;;;;2.42;0.85;;;;;;;;;;5007365;28;20038;-65
2023/02/02 07:33:52;;;;;;;1.75;0.73;;;;;;;;;;5007187;28;20038;-64
2023/02/02 07:36:22;;;;;;;1.80;0.73;;;;;;;;;;5006813;28;20046;-67
2023/02/02 07:38:50;;;;;;;1.42;0.75;;;;;;;;;;5007493;28;20049;-64
2023/02/02 07:41:17;;;;;;;1.92;1.00;;;;;;;;;;5003063;28;20048;-66
2023/02/02 07:43:46;;;;;;;1.38;0.70;;;;;;;;;;5000807;28;20817;-66
2023/02/02 07:46:13;;;;;;;1.15;0.65;;;;;;;;;;4998687;28;20049;-67
2023/02/02 07:48:40;;;;;;;1.77;0.75;;;;;;;;;;5001831;28;20044;-66
2023/02/02 07:51:09;;;;;;;0.75;0.55;;;;;;;;;;5002813;28;20069;-65
2023/02/02 07:53:36;;;;;;;3.00;1.10;;;;;;;;;;4997182;28;20072;-66
2023/02/02 07:56:22;;;;;;;3.13;1.10;;;;;;;;;;5003383;28;20034;-65
2023/02/02 07:58:48;;;;;;;1.20;0.50;;;;;;;;;;5000783;28;20095;-65
2023/02/02 08:01:15;;;;;;;1.92;0.70;;;;;;;;;;5001436;28;20065;-66
2023/02/02 08:03:43;;;;;;;1.65;0.70;;;;;;;;;;4997634;28;20084;-64
2023/02/02 08:06:14;;;;;;;1.95;0.70;;;;;;;;;;5001966;28;20049;-66
2023/02/02 08:08:41;;;;;;;0.63;0.40;;;;;;;;;;4995327;28;20100;-64
2023/02/02 08:11:09;;;;;;;1.10;0.60;;;;;;;;;;5003234;28;20065;-65
2023/02/02 08:13:36;;;;;;;2.13;0.80;;;;;;;;;;4996279;28;20143;-66
2023/02/02 08:16:02;;;;;;;2.72;0.82;;;;;;;;;;5004546;28;20402;-64
2023/02/02 08:18:29;;;;;;;3.05;0.80;;;;;;;;;;5001805;28;20045;-65
2023/02/02 08:20:58;;;;;;;2.22;0.68;;;;;;;;;;5006250;28;20046;-66
2023/02/02 08:23:24;;;;;;;1.60;0.93;;;;;;;;;;5003137;28;20265;-64
2023/02/02 08:25:52;;;;;;;4.30;1.00;;;;;;;;;;5004421;28;20470;-64
2023/02/02 08:28:18;;;;;;;0.63;0.57;;;;;;;;;;5001218;28;20167;-66
2023/02/02 08:30:45;;;;;;;0.55;0.32;;;;;;;;;;5013025;28;20120;-66
2023/02/02 08:33:32;;;;;;;1.15;0.60;;;;;;;;;;5012670;28;20160;-66
2023/02/02 08:36:19;;;;;;;3.17;0.90;;;;;;;;;;4997587;28;20051;-66
2023/02/02 08:38:46;;;;;;;1.30;0.57;;;;;;;;;;4970127;28;20054;-65
2023/02/02 08:41:14;;;;;;;0.68;0.40;;;;;;;;;;4958814;28;20034;-66
2023/02/02 08:43:41;;;;;;;0.70;0.50;;;;;;;;;;4972054;28;20569;-64
2023/02/02 08:46:08;;;;;;;1.05;0.50;;;;;;;;;;4943861;28;20050;-65
2023/02/02 08:48:35;;;;;;;1.35;0.75;;;;;;;;;;4969901;28;20690;-65
2023/02/02 08:51:02;;;;;;;2.30;0.88;;;;;;;;;;4974770;28;20070;-66
2023/02/02 08:53:29;;;;;;;2.30;0.60;;;;;;;;;;4958961;28;20061;-64
2023/02/02 08:56:00;;;;;;;6.63;1.25;;;;;;;;;;4958711;28;20057;-65
2023/02/02 08:58:26;;;;;;;0.85;0.47;;;;;;;;;;4972126;28;20467;-66
2023/02/02 09:00:55;;;;;;;2.75;0.80;;;;;;;;;;4957758;28;20042;-65
2023/02/02 09:03:22;;;;;;;1.52;0.75;;;;;;;;;;4964235;28;20073;-64
2023/02/02 09:05:48;;;;;;;0.50;0.45;;;;;;;;;;4958864;28;20549;-65
2023/02/02 09:08:15;;;;;;;2.65;0.90;;;;;;;;;;4987108;28;20410;-66
2023/02/02 09:10:42;;;;;;;2.47;1.05;;;;;;;;;;4986965;28;20145;-65
2023/02/02 09:13:08;;;;;;;1.23;0.68;;;;;;;;;;4987048;28;20109;-64
2023/02/02 09:15:35;;;;;;;2.90;1.05;;;;;;;;;;4984499;28;20042;-66
2023/02/02 09:18:03;;;;;;;2.00;0.70;;;;;;;;;;5018893;28;20079;-65
2023/02/02 09:20:30;;;;;;;2.13;1.00;;;;;;;;;;5003893;28;20175;-63
2023/02/02 09:22:57;;;;;;;2.88;1.05;;;;;;;;;;5004325;28;20057;-63
2023/02/02 09:25:26;;;;;;;1.17;0.70;;;;;;;;;;5014468;28;20077;-65
2023/02/02 09:27:54;;;;;;;1.65;0.98;;;;;;;;;;5012900;28;20506;-63
2023/02/02 09:30:21;;;;;;;2.20;0.73;;;;;;;;;;5002874;28;20037;-64
2023/02/02 09:32:50;;;;;;;0.98;0.63;;;;;;;;;;4988372;28;20133;-64
2023/02/02 09:35:17;;;;;;;2.80;1.10;;;;;;;;;;5012160;28;20087;-63
2023/02/02 09:37:44;;;;;;;2.00;1.02;;;;;;;;;;5011342;28;20154;-66
2023/02/02 09:40:16;;;;;;;3.72;1.13;;;;;;;;;;5002220;28;20115;-66
2023/02/02 09:42:48;;;;;;;1.40;0.75;;;;;;;;;;5003640;28;20037;-63
2023/02/02 09:45:18;;;;;;;0.93;0.55;;;;;;;;;;5010559;28;20043;-64
2023/02/02 09:47:56;;;;;;;1.67;0.93;;;;;;;;;;5015168;28;20068;-65
2023/02/02 09:50:37;;;;;;;1.23;0.73;;;;;;;;;;4997848;28;20057;-65
2023/02/02 09:53:06;;;;;;;2.20;1.00;;;;;;;;;;5013965;28;20041;-65
2023/02/02 09:55:55;;;;;;;4.43;1.63;;;;;;;;;;4967125;28;20129;-64
2023/02/02 09:58:45;;;;;;;4.72;1.80;;;;;;;;;;4954032;28;20034;-62
2023/02/02 10:01:16;;;;;;;4.07;1.30;;;;;;;;;;4966870;28;20050;-65
2023/02/02 10:03:45;;;;;;;2.75;1.33;;;;;;;;;;4970990;28;20071;-66
2023/02/02 10:06:24;;;;;;;2.35;1.08;;;;;;;;;;4955677;28;20070;-65
2023/02/02 10:08:54;;;;;;;2.20;1.05;;;;;;;;;;4956166;28;20202;-66
2023/02/02 10:11:39;;;;;;;3.65;1.13;;;;;;;;;;4955519;28;20121;-65
2023/02/02 10:14:12;;;;;;;0.47;0.30;;;;;;;;;;4932152;28;20043;-64
2023/02/02 10:16:39;;;;;;;1.42;0.68;;;;;;;;;;4962284;28;20673;-65
2023/02/02 10:19:13;;;;;;;0.50;0.28;;;;;;;;;;4938336;28;20061;-63
2023/02/02 10:21:48;;;;;;;9.32;1.98;;;;;;;;;;4975513;28;20146;-65
2023/02/02 10:24:19;;;;;;;2.45;1.35;;;;;;;;;;4959645;28;20069;-65
2023/02/02 10:26:48;;;;;;;2.35;0.98;;;;;;;;;;4959931;28;20224;-63
2023/02/02 10:29:23;;;;;;;1.73;0.98;;;;;;;;;;4975712;28;20190;-64
2023/02/02 10:31:50;;;;;;;0.85;0.52;;;;;;;;;;4966730;28;20578;-65
2023/02/02 10:34:25;;;;;;;2.15;1.33;;;;;;;;;;5013018;28;20041;-65
2023/02/02 10:37:04;;;;;;;3.17;1.35;;;;;;;;;;5020154;28;20168;-65
2023/02/02 10:39:46;;;;;;;1.35;0.68;;;;;;;;;;5010412;28;20080;-65
2023/02/02 10:42:13;;;;;;;2.25;0.98;;;;;;;;;;5021722;28;20041;-66
2023/02/02 10:44:42;;;;;;;4.60;1.92;;;;;;;;;;5018523;28;20053;-65
2023/02/02 10:47:10;;;;;;;0.77;0.38;;;;;;;;;;5022301;28;20148;-66
2023/02/02 10:49:40;;;;;;;1.38;0.68;;;;;;;;;;5007247;28;20148;-63
2023/02/02 10:52:25;;;;;;;2.45;1.25;;;;;;;;;;5024582;28;20493;-63
2023/02/02 10:54:58;;;;;;;0.40;0.35;;;;;;;;;;5013643;28;20037;-65
2023/02/02 10:57:45;;;;;;;0.20;0.20;;;;;;;;;;5023590;28;20091;-64
2023/02/02 11:00:17;;;;;;;2.67;1.33;;;;;;;;;;4986686;28;20299;-65
2023/02/02 11:02:46;;;;;;;2.88;0.90;;;;;;;;;;5023938;28;20041;-65
2023/02/02 11:08:23;;;;;;;1.15;0.75;;;;;;;;;;5022490;28;20067;-66
2023/02/02 11:10:52;;;;;;;0.63;0.40;;;;;;;;;;5025226;28;20674;-65
2023/02/02 11:13:27;;;;;;;0.95;0.45;;;;;;;;;;5005901;28;20038;-68
2023/02/02 11:16:32;;;;;;;2.45;1.10;;;;;;;;;;5025908;28;20176;-65
2023/02/02 11:18:59;;;;;;;0.95;0.47;;;;;;;;;;4950696;28;20050;-65
2023/02/02 11:21:27;;;;;;;0.25;0.20;;;;;;;;;;4959912;28;20042;-65
2023/02/02 11:23:59;;;;;;;0.90;0.85;;;;;;;;;;4990779;28;20720;-65
2023/02/02 11:26:27;;;;;;;1.63;0.80;;;;;;;;;;5020876;28;20046;-67
2023/02/02 11:28:54;;;;;;;0.52;0.32;;;;;;;;;;5021633;28;20038;-65
2023/02/02 11:31:35;;;;;;;9.40;1.10;;;;;;;;;;5026492;28;20994;-65
2023/02/02 11:34:16;;;;;;;1.35;0.60;;;;;;;;;;5004590;28;20049;-64
2023/02/02 11:37:16;;;;;;;2.85;1.08;;;;;;;;;;5014040;28;20509;-64
2023/02/02 11:39:43;;;;;;;2.28;0.70;;;;;;;;;;4992945;28;20140;-65
2023/02/02 11:42:14;;;;;;;0.32;0.22;;;;;;;;;;5004064;28;21705;-67
2023/02/02 11:44:44;;;;;;;2.58;0.98;;;;;;;;;;5003802;28;20049;-65
2023/02/02 11:47:18;;;;;;;1.15;0.60;;;;;;;;;;5002036;28;20038;-64
2023/02/02 11:49:45;;;;;;;1.13;0.52;;;;;;;;;;4976410;28;20072;-66
2023/02/02 11:52:18;;;;;;;1.27;0.70;;;;;;;;;;4999840;28;20046;-64
2023/02/02 11:54:53;;;;;;;0.30;0.23;;;;;;;;;;5003276;28;20046;-63
2023/02/02 11:57:21;;;;;;;1.08;0.45;;;;;;;;;;5003656;28;20282;-67
2023/02/02 11:59:49;;;;;;;1.30;0.73;;;;;;;;;;5003866;28;20124;-67
2023/02/02 12:02:29;;;;;;;2.90;1.08;;;;;;;;;;5004276;28;20565;-65
2023/02/02 12:05:13;;;;;;;1.02;0.63;;;;;;;;;;5004444;28;20108;-65
2023/02/02 12:07:39;;;;;;;;;;;;;;;;;;5007169;28;20080;-66
2023/02/02 12:10:13;;;;;;;1.55;0.80;;;;;;;;;;5006522;28;19922;-65
2023/02/02 12:12:39;;;;;;;;;;;;;;;;;;5007479;28;20056;-64
2023/02/02 12:15:12;;;;;;;0.68;0.68;;;;;;;;;;5005253;28;19921;-64
2023/02/02 12:17:40;;;;;;;1.33;0.60;;;;;;;;;;5015680;28;21823;-65
2023/02/02 12:20:18;;;;;;;1.95;0.70;;;;;;;;;;5007201;28;20057;-66
2023/02/02 12:22:44;;;;;;;0.20;0.20;;;;;;;;;;5009438;28;20187;-66
2023/02/02 12:25:28;;;;;;;1.15;0.60;;;;;;;;;;5020213;28;20527;-66
2023/02/02 12:28:07;;;;;;;1.77;0.77;;;;;;;;;;5002304;28;20046;-63
2023/02/02 12:30:46;;;;;;;1.40;0.77;;;;;;;;;;5004702;28;20388;-63
2023/02/02 12:33:22;;;;;;;1.60;0.60;;;;;;;;;;5006379;28;20111;-66
2023/02/02 12:35:58;;;;;;;0.57;0.40;;;;;;;;;;5014674;28;20713;-65
2023/02/02 12:38:25;;;;;;;0.25;0.25;;;;;;;;;;5014454;28;20184;-66
2023/02/02 12:41:02;;;;;;;0.70;0.55;;;;;;;;;;5018108;28;20537;-64
2023/02/02 12:43:43;;;;;;;0.50;0.43;;;;;;;;;;5018675;28;20164;-66
2023/02/02 12:46:31;;;;;;;5.72;1.13;;;;;;;;;;5003720;28;20030;-65
2023/02/02 12:48:58;;;;;;;0.60;0.40;;;;;;;;;;5015603;28;20405;-65
2023/02/02 12:51:25;;;;;;;3.80;1.40;;;;;;;;;;5001301;28;20088;-65
2023/02/02 12:54:02;;;;;;;2.25;1.02;;;;;;;;;;5001277;28;20567;-65
2023/02/02 12:56:39;;;;;;;0.85;0.50;;;;;;;;;;5001878;28;21709;-64
2023/02/02 12:59:26;;;;;;;6.45;2.75;;;;;;;;;;5003924;28;20046;-65
2023/02/02 13:02:11;;;;;;;1.85;0.73;;;;;;;;;;5018690;28;20552;-65
2023/02/02 13:04:37;;;;;;;0.75;0.55;;;;;;;;;;5015710;28;20042;-64
2023/02/02 13:07:23;;;;;;;1.05;0.40;;;;;;;;;;5020241;28;20110;-66
2023/02/02 13:10:01;;;;;;;1.00;0.40;;;;;;;;;;5023331;28;20037;-66
2023/02/02 13:12:29;;;;;;;0.60;0.43;;;;;;;;;;5018846;28;20396;-65
2023/02/02 13:14:58;;;;;;;0.50;0.32;;;;;;;;;;5021952;28;20048;-64
2023/02/02 13:17:29;;;;;;;2.80;1.42;;;;;;;;;;5018947;28;20038;-65
2023/02/02 13:19:57;;;;;;;1.85;0.82;;;;;;;;;;5021194;28;20049;-65
2023/02/02 13:22:29;;;;;;;1.27;0.60;;;;;;;;;;5024078;28;20086;-66
2023/02/02 13:24:57;;;;;;;16.45;1.45;;;;;;;;;;5007913;28;20054;-65
2023/02/02 13:27:25;;;;;;;0.65;0.43;;;;;;;;;;5007583;28;20041;-65
2023/02/02 13:29:54;;;;;;;1.25;0.60;;;;;;;;;;5006532;28;20029;-66
2023/02/02 13:32:30;;;;;;;0.70;0.30;;;;;;;;;;5008910;28;20156;-66
2023/02/02 13:35:05;;;;;;;0.95;0.50;;;;;;;;;;5012295;28;20129;-66
2023/02/02 13:37:35;;;;;;;1.63;0.80;;;;;;;;;;5010924;28;20065;-65
2023/02/02 13:40:24;;;;;;;1.10;0.60;;;;;;;;;;5002027;28;20053;-63
2023/02/02 13:42:56;;;;;;;1.35;0.65;;;;;;;;;;5001546;28;20045;-64
2023/02/02 13:45:28;;;;;;;0.35;0.35;;;;;;;;;;4995792;28;20104;-61
2023/02/02 13:48:11;;;;;;;2.63;1.27;;;;;;;;;;5000391;28;20121;-61
2023/02/02 13:50:44;;;;;;;1.10;0.45;;;;;;;;;;5000767;28;20117;-64
2023/02/02 13:53:33;;;;;;;1.20;0.65;;;;;;;;;;4931247;28;20035;-62
2023/02/02 13:56:00;;;;;;;4.57;0.90;;;;;;;;;;4942543;28;20099;-63
2023/02/02 13:58:32;;;;;;;0.88;0.60;;;;;;;;;;4940655;28;20568;-63
2023/02/02 14:01:04;;;;;;;1.67;0.90;;;;;;;;;;4939514;28;20126;-64
2023/02/02 14:03:32;;;;;;;0.63;0.40;;;;;;;;;;4939180;28;20158;-64
2023/02/02 14:06:10;;;;;;;1.55;0.65;;;;;;;;;;4941237;28;20092;-65
2023/02/02 14:08:37;;;;;;;2.03;0.95;;;;;;;;;;4940322;28;20093;-64
2023/02/02 14:11:09;;;;;;;2.90;1.10;;;;;;;;;;4946297;28;20044;-64
2023/02/02 14:16:31;;;;;;;3.40;1.35;;;;;;;;;;4949841;28;20046;-64
2023/02/02 14:19:01;;;;;;;0.85;0.45;;;;;;;;;;4952275;28;20731;-65
2023/02/02 14:21:31;;;;;;;1.58;0.82;;;;;;;;;;4952390;28;20114;-64
2023/02/02 14:24:16;;;;;;;2.08;0.82;;;;;;;;;;4950856;28;20064;-64
2023/02/02 14:27:25;;;;;;;2.67;1.05;;;;;;;;;;4955824;28;20032;-64
2023/02/02 14:29:53;;;;;;;3.42;0.88;;;;;;;;;;4953925;28;20070;-64
2023/02/02 14:32:29;;;;;;;1.52;0.65;;;;;;;;;;5000506;28;20049;-66
2023/02/02 14:35:12;;;;;;;1.20;0.77;;;;;;;;;;4995401;28;20056;-65
2023/02/02 14:37:47;;;;;;;5.05;1.55;;;;;;;;;;4998776;28;20426;-64
2023/02/02 14:40:16;;;;;;;3.00;1.83;;;;;;;;;;4976542;28;20062;-64
2023/02/02 14:45:43;;;;;;;3.95;1.40;;;;;;;;;;4981168;28;20655;-65
2023/02/02 14:48:13;;;;;;;2.13;1.30;;;;;;;;;;4982330;28;20152;-66
2023/02/02 14:50:43;;;;;;;4.95;2.38;;;;;;;;;;4970845;28;20033;-64
2023/02/02 14:53:16;;;;;;;0.50;0.40;;;;;;;;;;4979595;28;20034;-65
2023/02/02 14:56:02;;;;;;;2.53;1.15;;;;;;;;;;4978876;28;20106;-64
2023/02/02 14:58:40;;;;;;;3.33;1.55;;;;;;;;;;4977856;28;20180;-64
2023/02/02 15:01:28;;;;;;;2.20;0.93;;;;;;;;;;4959725;28;20057;-62
2023/02/02 15:03:56;;;;;;;0.77;0.47;;;;;;;;;;4970832;28;20710;-67
2023/02/02 15:06:23;;;;;;;3.53;1.35;;;;;;;;;;4976771;28;20162;-65
2023/02/02 15:09:08;;;;;;;3.78;2.17;;;;;;;;;;4977374;28;20038;-66
2023/02/02 15:11:56;;;;;;;1.15;0.60;;;;;;;;;;4978389;28;20102;-64
2023/02/02 15:14:25;;;;;;;4.32;0.73;;;;;;;;;;4980109;28;20299;-65
2023/02/02 15:16:52;;;;;;;0.40;0.35;;;;;;;;;;4981925;28;20159;-64
2023/02/02 15:19:23;;;;;;;7.68;1.15;;;;;;;;;;4977377;28;20624;-65
2023/02/02 15:21:52;;;;;;;2.75;1.10;;;;;;;;;;4986518;28;20140;-64
2023/02/02 15:24:22;;;;;;;3.58;1.58;;;;;;;;;;4996297;28;20137;-65